sensor_id;sensor_type;location;lat;lon;timestamp;temperature;humidity
77613;DHT22;66777;52.282;5.960;2023-03-01T00:00:45;-2.50;75.30
77613;DHT22;66777;52.282;5.960;2023-03-01T00:03:12;-2.60;75.50
77613;DHT22;66777;52.282;5.960;2023-03-01T00:05:46;-2.60;75.50
77613;DHT22;66777;52.282;5.960;2023-03-01T00:08:12;-2.60;75.80
77613;DHT22;66777;52.282;5.960;2023-03-01T00:10:38;-2.60;76.00
77613;DHT22;66777;52.282;5.960;2023-03-01T00:13:04;-2.60;75.90
77613;DHT22;66777;52.282;5.960;2023-03-01T00:15:31;-2.70;75.60
77613;DHT22;66777;52.282;5.960;2023-03-01T00:17:57;-2.70;75.60
77613;DHT22;66777;52.282;5.960;2023-03-01T00:20:23;-2.70;75.60
77613;DHT22;66777;52.282;5.960;2023-03-01T00:22:49;-2.80;75.60
77613;DHT22;66777;52.282;5.960;2023-03-01T00:25:14;-2.90;75.80
77613;DHT22;66777;52.282;5.960;2023-03-01T00:27:40;-2.90;76.10
77613;DHT22;66777;52.282;5.960;2023-03-01T00:30:06;-2.90;76.20
77613;DHT22;66777;52.282;5.960;2023-03-01T00:32:32;-2.90;75.90
77613;DHT22;66777;52.282;5.960;2023-03-01T00:34:57;-2.90;76.00
77613;DHT22;66777;52.282;5.960;2023-03-01T00:37:23;-2.90;75.80
77613;DHT22;66777;52.282;5.960;2023-03-01T00:39:49;-2.90;75.50
77613;DHT22;66777;52.282;5.960;2023-03-01T00:42:15;-3.00;75.50
77613;DHT22;66777;52.282;5.960;2023-03-01T00:44:43;-3.00;75.60
77613;DHT22;66777;52.282;5.960;2023-03-01T00:47:09;-3.10;75.80
77613;DHT22;66777;52.282;5.960;2023-03-01T00:49:34;-3.10;76.00
77613;DHT22;66777;52.282;5.960;2023-03-01T00:52:00;-3.10;76.10
77613;DHT22;66777;52.282;5.960;2023-03-01T00:54:26;-3.10;76.00
77613;DHT22;66777;52.282;5.960;2023-03-01T00:56:51;-3.20;75.80
77613;DHT22;66777;52.282;5.960;2023-03-01T00:59:17;-3.20;76.00
77613;DHT22;66777;52.282;5.960;2023-03-01T01:01:42;-3.20;76.10
77613;DHT22;66777;52.282;5.960;2023-03-01T01:04:11;-3.20;76.40
77613;DHT22;66777;52.282;5.960;2023-03-01T01:06:39;-3.20;76.30
77613;DHT22;66777;52.282;5.960;2023-03-01T01:09:09;-3.30;76.40
77613;DHT22;66777;52.282;5.960;2023-03-01T01:11:45;-3.30;76.30
77613;DHT22;66777;52.282;5.960;2023-03-01T01:14:11;-3.30;76.00
77613;DHT22;66777;52.282;5.960;2023-03-01T01:16:36;-3.30;76.10
77613;DHT22;66777;52.282;5.960;2023-03-01T01:19:02;-3.40;76.10
77613;DHT22;66777;52.282;5.960;2023-03-01T01:21:28;-3.40;76.20
77613;DHT22;66777;52.282;5.960;2023-03-01T01:23:54;-3.40;76.30
77613;DHT22;66777;52.282;5.960;2023-03-01T01:26:25;-3.40;76.30
77613;DHT22;66777;52.282;5.960;2023-03-01T01:28:51;-3.50;76.10
77613;DHT22;66777;52.282;5.960;2023-03-01T01:31:18;-3.50;76.30
77613;DHT22;66777;52.282;5.960;2023-03-01T01:33:44;-3.50;76.40
77613;DHT22;66777;52.282;5.960;2023-03-01T01:36:11;-3.50;76.60
77613;DHT22;66777;52.282;5.960;2023-03-01T01:38:38;-3.60;76.90
77613;DHT22;66777;52.282;5.960;2023-03-01T01:41:05;-3.60;77.00
77613;DHT22;66777;52.282;5.960;2023-03-01T01:43:35;-3.50;77.10
77613;DHT22;66777;52.282;5.960;2023-03-01T01:48:50;-3.60;76.90
77613;DHT22;66777;52.282;5.960;2023-03-01T01:51:22;-3.60;76.90
77613;DHT22;66777;52.282;5.960;2023-03-01T01:53:54;-3.60;77.00
77613;DHT22;66777;52.282;5.960;2023-03-01T01:56:23;-3.60;76.80
77613;DHT22;66777;52.282;5.960;2023-03-01T01:58:49;-3.60;76.70
77613;DHT22;66777;52.282;5.960;2023-03-01T02:01:17;-3.70;77.00
77613;DHT22;66777;52.282;5.960;2023-03-01T02:03:44;-3.70;77.00
77613;DHT22;66777;52.282;5.960;2023-03-01T02:08:37;-3.70;77.00
77613;DHT22;66777;52.282;5.960;2023-03-01T02:11:05;-3.80;76.80
77613;DHT22;66777;52.282;5.960;2023-03-01T02:13:35;-3.80;76.60
77613;DHT22;66777;52.282;5.960;2023-03-01T02:16:15;-3.80;76.60
77613;DHT22;66777;52.282;5.960;2023-03-01T02:18:42;-3.80;76.60
77613;DHT22;66777;52.282;5.960;2023-03-01T02:26:49;-3.60;77.00
77613;DHT22;66777;52.282;5.960;2023-03-01T02:29:17;-3.60;76.90
77613;DHT22;66777;52.282;5.960;2023-03-01T02:31:43;-3.60;76.80
77613;DHT22;66777;52.282;5.960;2023-03-01T02:34:15;-3.60;76.80
77613;DHT22;66777;52.282;5.960;2023-03-01T02:36:48;-3.60;76.60
77613;DHT22;66777;52.282;5.960;2023-03-01T02:39:19;-3.60;76.60
77613;DHT22;66777;52.282;5.960;2023-03-01T02:41:49;-3.60;76.70
77613;DHT22;66777;52.282;5.960;2023-03-01T02:44:18;-3.60;76.40
77613;DHT22;66777;52.282;5.960;2023-03-01T02:46:53;-3.60;76.60
77613;DHT22;66777;52.282;5.960;2023-03-01T02:52:01;-3.60;76.60
77613;DHT22;66777;52.282;5.960;2023-03-01T02:54:36;-3.60;76.60
77613;DHT22;66777;52.282;5.960;2023-03-01T02:57:05;-3.60;76.30
77613;DHT22;66777;52.282;5.960;2023-03-01T02:59:33;-3.70;76.20
77613;DHT22;66777;52.282;5.960;2023-03-01T03:02:07;-3.80;76.40
77613;DHT22;66777;52.282;5.960;2023-03-01T03:04:33;-3.80;76.30
77613;DHT22;66777;52.282;5.960;2023-03-01T03:06:58;-4.00;76.40
77613;DHT22;66777;52.282;5.960;2023-03-01T03:09:24;-4.00;76.50
77613;DHT22;66777;52.282;5.960;2023-03-01T03:11:50;-4.00;76.60
77613;DHT22;66777;52.282;5.960;2023-03-01T03:14:16;-4.00;76.50
77613;DHT22;66777;52.282;5.960;2023-03-01T03:16:44;-4.10;76.70
77613;DHT22;66777;52.282;5.960;2023-03-01T03:19:11;-4.10;76.80
77613;DHT22;66777;52.282;5.960;2023-03-01T03:21:36;-4.10;76.80
77613;DHT22;66777;52.282;5.960;2023-03-01T03:24:03;-4.10;76.90
77613;DHT22;66777;52.282;5.960;2023-03-01T03:26:29;-4.20;76.90
77613;DHT22;66777;52.282;5.960;2023-03-01T03:28:54;-4.10;77.10
77613;DHT22;66777;52.282;5.960;2023-03-01T03:31:21;-4.20;77.10
77613;DHT22;66777;52.282;5.960;2023-03-01T03:33:47;-4.20;77.00
77613;DHT22;66777;52.282;5.960;2023-03-01T03:36:22;-4.20;77.20
77613;DHT22;66777;52.282;5.960;2023-03-01T03:38:47;-4.10;77.10
77613;DHT22;66777;52.282;5.960;2023-03-01T03:41:14;-4.20;76.80
77613;DHT22;66777;52.282;5.960;2023-03-01T03:43:41;-4.20;76.90
77613;DHT22;66777;52.282;5.960;2023-03-01T03:46:09;-4.30;77.20
77613;DHT22;66777;52.282;5.960;2023-03-01T03:48:40;-4.30;77.20
77613;DHT22;66777;52.282;5.960;2023-03-01T03:51:07;-4.30;77.30
77613;DHT22;66777;52.282;5.960;2023-03-01T03:53:39;-4.30;77.30
77613;DHT22;66777;52.282;5.960;2023-03-01T03:56:07;-4.30;77.20
77613;DHT22;66777;52.282;5.960;2023-03-01T03:58:35;-4.30;77.20
77613;DHT22;66777;52.282;5.960;2023-03-01T04:01:03;-4.30;77.10
77613;DHT22;66777;52.282;5.960;2023-03-01T04:03:30;-4.40;77.20
77613;DHT22;66777;52.282;5.960;2023-03-01T04:06:04;-4.40;77.30
77613;DHT22;66777;52.282;5.960;2023-03-01T04:08:32;-4.40;77.20
77613;DHT22;66777;52.282;5.960;2023-03-01T04:11:01;-4.40;77.10
77613;DHT22;66777;52.282;5.960;2023-03-01T04:13:48;-4.40;77.30
77613;DHT22;66777;52.282;5.960;2023-03-01T04:16:13;-4.40;77.70
77613;DHT22;66777;52.282;5.960;2023-03-01T04:18:39;-4.40;77.40
77613;DHT22;66777;52.282;5.960;2023-03-01T04:21:14;-4.40;77.50
77613;DHT22;66777;52.282;5.960;2023-03-01T04:23:54;-4.50;77.20
77613;DHT22;66777;52.282;5.960;2023-03-01T04:26:26;-4.40;77.10
77613;DHT22;66777;52.282;5.960;2023-03-01T04:28:52;-4.40;77.00
77613;DHT22;66777;52.282;5.960;2023-03-01T04:31:24;-4.50;77.40
77613;DHT22;66777;52.282;5.960;2023-03-01T04:33:59;-4.40;77.30
77613;DHT22;66777;52.282;5.960;2023-03-01T04:36:29;-4.40;77.20
77613;DHT22;66777;52.282;5.960;2023-03-01T04:38:55;-4.40;77.10
77613;DHT22;66777;52.282;5.960;2023-03-01T04:41:23;-4.50;77.10
77613;DHT22;66777;52.282;5.960;2023-03-01T04:43:50;-4.40;77.10
77613;DHT22;66777;52.282;5.960;2023-03-01T04:46:21;-4.40;77.20
77613;DHT22;66777;52.282;5.960;2023-03-01T04:48:53;-4.40;77.40
77613;DHT22;66777;52.282;5.960;2023-03-01T04:51:24;-4.40;77.50
77613;DHT22;66777;52.282;5.960;2023-03-01T04:53:51;-4.50;77.70
77613;DHT22;66777;52.282;5.960;2023-03-01T04:56:24;-4.50;77.40
77613;DHT22;66777;52.282;5.960;2023-03-01T04:58:53;-4.50;77.50
77613;DHT22;66777;52.282;5.960;2023-03-01T05:01:21;-4.50;77.50
77613;DHT22;66777;52.282;5.960;2023-03-01T05:03:51;-4.50;77.40
77613;DHT22;66777;52.282;5.960;2023-03-01T05:06:22;-4.40;77.60
77613;DHT22;66777;52.282;5.960;2023-03-01T05:08:49;-4.40;77.60
77613;DHT22;66777;52.282;5.960;2023-03-01T05:11:18;-4.40;77.50
77613;DHT22;66777;52.282;5.960;2023-03-01T05:13:45;-4.40;77.60
77613;DHT22;66777;52.282;5.960;2023-03-01T05:16:12;-4.40;77.20
77613;DHT22;66777;52.282;5.960;2023-03-01T05:18:39;-4.50;77.20
77613;DHT22;66777;52.282;5.960;2023-03-01T05:21:10;-4.50;77.50
77613;DHT22;66777;52.282;5.960;2023-03-01T05:23:37;-4.40;77.80
77613;DHT22;66777;52.282;5.960;2023-03-01T05:26:08;-4.40;77.70
77613;DHT22;66777;52.282;5.960;2023-03-01T05:28:40;-4.50;77.60
77613;DHT22;66777;52.282;5.960;2023-03-01T05:31:09;-4.60;77.50
77613;DHT22;66777;52.282;5.960;2023-03-01T05:33:39;-4.60;77.60
77613;DHT22;66777;52.282;5.960;2023-03-01T05:36:06;-4.60;77.50
77613;DHT22;66777;52.282;5.960;2023-03-01T05:38:33;-4.60;77.30
77613;DHT22;66777;52.282;5.960;2023-03-01T05:40:59;-4.60;77.60
77613;DHT22;66777;52.282;5.960;2023-03-01T05:43:29;-4.60;77.20
77613;DHT22;66777;52.282;5.960;2023-03-01T05:45:57;-4.60;77.30
77613;DHT22;66777;52.282;5.960;2023-03-01T05:48:24;-4.60;77.80
77613;DHT22;66777;52.282;5.960;2023-03-01T05:50:50;-4.60;77.80
77613;DHT22;66777;52.282;5.960;2023-03-01T05:53:27;-4.60;77.50
77613;DHT22;66777;52.282;5.960;2023-03-01T05:55:57;-4.60;77.60
77613;DHT22;66777;52.282;5.960;2023-03-01T05:58:23;-4.60;77.50
77613;DHT22;66777;52.282;5.960;2023-03-01T06:00:52;-4.60;77.70
77613;DHT22;66777;52.282;5.960;2023-03-01T06:03:19;-4.60;77.80
77613;DHT22;66777;52.282;5.960;2023-03-01T06:05:58;-4.60;77.60
77613;DHT22;66777;52.282;5.960;2023-03-01T06:08:52;-4.60;77.70
77613;DHT22;66777;52.282;5.960;2023-03-01T06:15:02;-4.60;77.60
77613;DHT22;66777;52.282;5.960;2023-03-01T06:17:45;-4.70;77.90
77613;DHT22;66777;52.282;5.960;2023-03-01T06:20:43;-4.70;77.70
77613;DHT22;66777;52.282;5.960;2023-03-01T06:23:35;-4.80;77.30
77613;DHT22;66777;52.282;5.960;2023-03-01T06:26:47;-4.80;77.70
77613;DHT22;66777;52.282;5.960;2023-03-01T06:30:13;-4.80;77.70
77613;DHT22;66777;52.282;5.960;2023-03-01T06:33:22;-4.80;77.60
77613;DHT22;66777;52.282;5.960;2023-03-01T06:36:03;-4.80;77.80
77613;DHT22;66777;52.282;5.960;2023-03-01T06:38:49;-4.80;77.70
77613;DHT22;66777;52.282;5.960;2023-03-01T06:41:22;-4.80;77.70
77613;DHT22;66777;52.282;5.960;2023-03-01T06:43:52;-4.70;77.70
77613;DHT22;66777;52.282;5.960;2023-03-01T06:46:20;-4.60;77.50
77613;DHT22;66777;52.282;5.960;2023-03-01T06:48:49;-4.60;77.30
77613;DHT22;66777;52.282;5.960;2023-03-01T06:51:20;-4.60;77.40
77613;DHT22;66777;52.282;5.960;2023-03-01T06:53:52;-4.60;77.10
77613;DHT22;66777;52.282;5.960;2023-03-01T06:56:19;-4.60;77.20
77613;DHT22;66777;52.282;5.960;2023-03-01T06:58:49;-4.40;77.20
77613;DHT22;66777;52.282;5.960;2023-03-01T07:01:21;-4.40;77.20
77613;DHT22;66777;52.282;5.960;2023-03-01T07:03:52;-4.30;77.20
77613;DHT22;66777;52.282;5.960;2023-03-01T07:06:18;-4.20;77.20
77613;DHT22;66777;52.282;5.960;2023-03-01T07:08:49;-4.10;77.20
77613;DHT22;66777;52.282;5.960;2023-03-01T07:11:19;-4.00;77.40
77613;DHT22;66777;52.282;5.960;2023-03-01T07:13:50;-3.90;77.40
77613;DHT22;66777;52.282;5.960;2023-03-01T07:16:15;-3.80;77.40
77613;DHT22;66777;52.282;5.960;2023-03-01T07:18:42;-3.60;77.30
77613;DHT22;66777;52.282;5.960;2023-03-01T07:21:09;-3.50;77.30
77613;DHT22;66777;52.282;5.960;2023-03-01T07:23:37;-3.40;77.40
77613;DHT22;66777;52.282;5.960;2023-03-01T07:26:03;-3.20;77.30
77613;DHT22;66777;52.282;5.960;2023-03-01T07:28:28;-3.10;77.40
77613;DHT22;66777;52.282;5.960;2023-03-01T07:30:54;-2.90;77.30
77613;DHT22;66777;52.282;5.960;2023-03-01T07:33:20;-2.80;77.20
77613;DHT22;66777;52.282;5.960;2023-03-01T07:35:46;-2.70;77.10
77613;DHT22;66777;52.282;5.960;2023-03-01T07:38:11;-2.50;76.80
77613;DHT22;66777;52.282;5.960;2023-03-01T07:40:40;-2.40;76.90
77613;DHT22;66777;52.282;5.960;2023-03-01T07:43:08;-2.20;77.10
77613;DHT22;66777;52.282;5.960;2023-03-01T07:45:33;-1.90;77.30
77613;DHT22;66777;52.282;5.960;2023-03-01T07:48:05;-1.70;77.20
77613;DHT22;66777;52.282;5.960;2023-03-01T07:50:32;-1.50;77.00
77613;DHT22;66777;52.282;5.960;2023-03-01T07:53:21;-1.30;76.80
77613;DHT22;66777;52.282;5.960;2023-03-01T07:55:46;-1.20;76.30
77613;DHT22;66777;52.282;5.960;2023-03-01T07:58:12;-1.00;75.90
77613;DHT22;66777;52.282;5.960;2023-03-01T08:00:37;-0.90;75.70
77613;DHT22;66777;52.282;5.960;2023-03-01T08:03:04;-0.70;75.30
77613;DHT22;66777;52.282;5.960;2023-03-01T08:05:30;-0.60;75.30
77613;DHT22;66777;52.282;5.960;2023-03-01T08:07:55;-0.50;74.80
77613;DHT22;66777;52.282;5.960;2023-03-01T08:10:21;-0.40;74.60
77613;DHT22;66777;52.282;5.960;2023-03-01T08:12:47;-0.20;74.60
77613;DHT22;66777;52.282;5.960;2023-03-01T08:15:12;-0.10;74.20
77613;DHT22;66777;52.282;5.960;2023-03-01T08:17:40;-0.10;73.80
77613;DHT22;66777;52.282;5.960;2023-03-01T08:20:06;0.00;73.50
77613;DHT22;66777;52.282;5.960;2023-03-01T08:22:32;0.00;73.30
77613;DHT22;66777;52.282;5.960;2023-03-01T08:24:58;0.20;73.00
77613;DHT22;66777;52.282;5.960;2023-03-01T08:27:23;0.30;72.70
77613;DHT22;66777;52.282;5.960;2023-03-01T08:29:49;0.40;73.00
77613;DHT22;66777;52.282;5.960;2023-03-01T08:32:14;0.40;72.80
77613;DHT22;66777;52.282;5.960;2023-03-01T08:34:46;0.50;72.30
77613;DHT22;66777;52.282;5.960;2023-03-01T08:37:12;0.60;72.30
77613;DHT22;66777;52.282;5.960;2023-03-01T08:39:38;0.60;72.30
77613;DHT22;66777;52.282;5.960;2023-03-01T08:42:04;0.70;72.00
77613;DHT22;66777;52.282;5.960;2023-03-01T08:44:29;0.80;72.00
77613;DHT22;66777;52.282;5.960;2023-03-01T08:46:55;0.90;72.00
77613;DHT22;66777;52.282;5.960;2023-03-01T08:49:21;1.00;71.10
77613;DHT22;66777;52.282;5.960;2023-03-01T08:51:47;1.20;70.70
77613;DHT22;66777;52.282;5.960;2023-03-01T08:54:18;1.40;70.10
77613;DHT22;66777;52.282;5.960;2023-03-01T08:56:45;1.50;69.60
77613;DHT22;66777;52.282;5.960;2023-03-01T08:59:11;1.60;69.30
77613;DHT22;66777;52.282;5.960;2023-03-01T09:01:37;1.70;69.20
77613;DHT22;66777;52.282;5.960;2023-03-01T09:04:03;1.80;69.10
77613;DHT22;66777;52.282;5.960;2023-03-01T09:06:33;1.80;68.60
77613;DHT22;66777;52.282;5.960;2023-03-01T09:08:59;1.90;68.30
77613;DHT22;66777;52.282;5.960;2023-03-01T09:11:26;2.00;68.40
77613;DHT22;66777;52.282;5.960;2023-03-01T09:13:53;2.00;68.20
77613;DHT22;66777;52.282;5.960;2023-03-01T09:16:20;2.10;67.60
77613;DHT22;66777;52.282;5.960;2023-03-01T09:18:53;2.30;67.30
77613;DHT22;66777;52.282;5.960;2023-03-01T09:21:21;2.50;66.70
77613;DHT22;66777;52.282;5.960;2023-03-01T09:23:48;2.60;66.10
77613;DHT22;66777;52.282;5.960;2023-03-01T09:26:20;2.80;65.80
77613;DHT22;66777;52.282;5.960;2023-03-01T09:28:48;3.00;65.40
77613;DHT22;66777;52.282;5.960;2023-03-01T09:31:14;3.30;65.00
77613;DHT22;66777;52.282;5.960;2023-03-01T09:33:41;3.90;64.30
77613;DHT22;66777;52.282;5.960;2023-03-01T09:36:11;4.20;62.60
77613;DHT22;66777;52.282;5.960;2023-03-01T09:38:39;4.00;62.80
77613;DHT22;66777;52.282;5.960;2023-03-01T09:43:51;3.80;62.70
77613;DHT22;66777;52.282;5.960;2023-03-01T09:46:23;3.70;63.20
77613;DHT22;66777;52.282;5.960;2023-03-01T09:48:55;3.90;63.30
77613;DHT22;66777;52.282;5.960;2023-03-01T09:51:29;3.90;63.30
77613;DHT22;66777;52.282;5.960;2023-03-01T09:53:56;3.90;63.20
77613;DHT22;66777;52.282;5.960;2023-03-01T09:56:36;4.00;62.30
77613;DHT22;66777;52.282;5.960;2023-03-01T10:09:44;5.00;60.50
77613;DHT22;66777;52.282;5.960;2023-03-01T10:12:20;5.50;59.30
77613;DHT22;66777;52.282;5.960;2023-03-01T10:14:57;5.30;59.20
77613;DHT22;66777;52.282;5.960;2023-03-01T10:17:27;5.20;59.40
77613;DHT22;66777;52.282;5.960;2023-03-01T10:20:05;5.10;57.80
77613;DHT22;66777;52.282;5.960;2023-03-01T10:22:36;5.10;58.00
77613;DHT22;66777;52.282;5.960;2023-03-01T10:25:03;5.10;57.70
77613;DHT22;66777;52.282;5.960;2023-03-01T10:27:38;5.10;57.60
77613;DHT22;66777;52.282;5.960;2023-03-01T10:32:49;5.30;56.80
77613;DHT22;66777;52.282;5.960;2023-03-01T10:35:28;5.40;56.60
77613;DHT22;66777;52.282;5.960;2023-03-01T10:38:09;5.50;56.60
77613;DHT22;66777;52.282;5.960;2023-03-01T10:40:49;6.00;55.40
77613;DHT22;66777;52.282;5.960;2023-03-01T10:43:15;6.10;54.80
77613;DHT22;66777;52.282;5.960;2023-03-01T10:45:41;6.00;55.50
77613;DHT22;66777;52.282;5.960;2023-03-01T10:48:23;6.00;55.50
77613;DHT22;66777;52.282;5.960;2023-03-01T10:53:38;6.20;55.00
77613;DHT22;66777;52.282;5.960;2023-03-01T10:56:09;6.50;55.00
77613;DHT22;66777;52.282;5.960;2023-03-01T10:58:37;6.90;54.00
77613;DHT22;66777;52.282;5.960;2023-03-01T11:01:06;7.20;53.50
77613;DHT22;66777;52.282;5.960;2023-03-01T11:03:36;7.40;53.00
77613;DHT22;66777;52.282;5.960;2023-03-01T11:06:20;8.00;51.70
77613;DHT22;66777;52.282;5.960;2023-03-01T11:08:48;8.60;50.00
77613;DHT22;66777;52.282;5.960;2023-03-01T11:11:33;9.80;49.10
77613;DHT22;66777;52.282;5.960;2023-03-01T11:14:03;10.30;48.00
77613;DHT22;66777;52.282;5.960;2023-03-01T11:16:42;10.00;48.10
77613;DHT22;66777;52.282;5.960;2023-03-01T11:21:38;10.70;47.30
77613;DHT22;66777;52.282;5.960;2023-03-01T11:24:06;11.20;46.90
77613;DHT22;66777;52.282;5.960;2023-03-01T11:26:38;13.90;44.40
77613;DHT22;66777;52.282;5.960;2023-03-01T11:29:12;15.00;42.30
77613;DHT22;66777;52.282;5.960;2023-03-01T11:31:41;14.60;42.30
77613;DHT22;66777;52.282;5.960;2023-03-01T11:34:23;14.50;42.20
77613;DHT22;66777;52.282;5.960;2023-03-01T11:37:00;15.50;40.10
77613;DHT22;66777;52.282;5.960;2023-03-01T11:39:36;16.90;38.80
77613;DHT22;66777;52.282;5.960;2023-03-01T11:42:17;18.20;37.80
77613;DHT22;66777;52.282;5.960;2023-03-01T11:44:47;20.80;35.10
77613;DHT22;66777;52.282;5.960;2023-03-01T11:47:20;23.20;33.90
77613;DHT22;66777;52.282;5.960;2023-03-01T11:55:36;28.10;31.00
77613;DHT22;66777;52.282;5.960;2023-03-01T12:01:18;28.30;30.50
77613;DHT22;66777;52.282;5.960;2023-03-01T12:04:14;26.70;29.30
77613;DHT22;66777;52.282;5.960;2023-03-01T12:06:50;26.90;30.30
77613;DHT22;66777;52.282;5.960;2023-03-01T12:23:24;32.50;27.70
77613;DHT22;66777;52.282;5.960;2023-03-01T12:36:55;33.00;26.10
77613;DHT22;66777;52.282;5.960;2023-03-01T12:39:44;33.00;24.70
77613;DHT22;66777;52.282;5.960;2023-03-01T12:48:14;34.20;23.40
77613;DHT22;66777;52.282;5.960;2023-03-01T12:50:47;33.80;24.40
77613;DHT22;66777;52.282;5.960;2023-03-01T12:53:27;32.60;25.60
77613;DHT22;66777;52.282;5.960;2023-03-01T12:55:54;32.10;26.30
77613;DHT22;66777;52.282;5.960;2023-03-01T12:58:32;33.50;25.60
77613;DHT22;66777;52.282;5.960;2023-03-01T13:01:19;33.50;26.20
77613;DHT22;66777;52.282;5.960;2023-03-01T13:09:39;32.20;26.40
77613;DHT22;66777;52.282;5.960;2023-03-01T13:17:53;31.60;26.90
77613;DHT22;66777;52.282;5.960;2023-03-01T13:20:23;32.60;25.30
77613;DHT22;66777;52.282;5.960;2023-03-01T13:33:56;32.20;25.40
77613;DHT22;66777;52.282;5.960;2023-03-01T13:46:44;31.60;25.90
77613;DHT22;66777;52.282;5.960;2023-03-01T13:49:19;28.90;25.80
77613;DHT22;66777;52.282;5.960;2023-03-01T13:51:49;27.00;26.20
77613;DHT22;66777;52.282;5.960;2023-03-01T13:54:29;25.80;28.20
77613;DHT22;66777;52.282;5.960;2023-03-01T13:56:57;24.20;28.70
77613;DHT22;66777;52.282;5.960;2023-03-01T13:59:23;23.80;29.40
77613;DHT22;66777;52.282;5.960;2023-03-01T14:01:56;23.00;29.70
77613;DHT22;66777;52.282;5.960;2023-03-01T14:04:28;21.30;30.60
77613;DHT22;66777;52.282;5.960;2023-03-01T14:07:21;19.40;31.40
77613;DHT22;66777;52.282;5.960;2023-03-01T14:09:52;18.00;31.90
77613;DHT22;66777;52.282;5.960;2023-03-01T14:15:25;14.70;35.10
77613;DHT22;66777;52.282;5.960;2023-03-01T14:18:04;14.10;37.60
77613;DHT22;66777;52.282;5.960;2023-03-01T14:20:38;13.60;37.20
77613;DHT22;66777;52.282;5.960;2023-03-01T14:23:15;13.30;38.70
77613;DHT22;66777;52.282;5.960;2023-03-01T14:25:53;13.70;38.60
77613;DHT22;66777;52.282;5.960;2023-03-01T14:28:30;13.90;37.50
77613;DHT22;66777;52.282;5.960;2023-03-01T14:31:00;13.60;38.40
77613;DHT22;66777;52.282;5.960;2023-03-01T14:33:34;12.80;38.30
77613;DHT22;66777;52.282;5.960;2023-03-01T14:36:05;12.10;38.70
77613;DHT22;66777;52.282;5.960;2023-03-01T14:38:40;12.10;38.90
77613;DHT22;66777;52.282;5.960;2023-03-01T14:41:12;11.70;39.20
77613;DHT22;66777;52.282;5.960;2023-03-01T14:43:51;11.10;39.50
77613;DHT22;66777;52.282;5.960;2023-03-01T14:46:30;10.70;39.80
77613;DHT22;66777;52.282;5.960;2023-03-01T14:49:02;10.50;40.10
77613;DHT22;66777;52.282;5.960;2023-03-01T14:51:28;10.40;40.40
77613;DHT22;66777;52.282;5.960;2023-03-01T14:53:55;10.20;41.30
77613;DHT22;66777;52.282;5.960;2023-03-01T14:56:21;10.70;41.10
77613;DHT22;66777;52.282;5.960;2023-03-01T14:58:51;11.20;40.40
77613;DHT22;66777;52.282;5.960;2023-03-01T15:01:18;11.30;40.20
77613;DHT22;66777;52.282;5.960;2023-03-01T15:03:47;11.10;40.80
77613;DHT22;66777;52.282;5.960;2023-03-01T15:06:19;10.60;41.20
77613;DHT22;66777;52.282;5.960;2023-03-01T15:08:50;10.40;41.90
77613;DHT22;66777;52.282;5.960;2023-03-01T15:13:52;10.10;42.00
77613;DHT22;66777;52.282;5.960;2023-03-01T15:16:33;10.00;42.50
77613;DHT22;66777;52.282;5.960;2023-03-01T15:19:03;10.50;41.90
77613;DHT22;66777;52.282;5.960;2023-03-01T15:21:37;10.70;41.80
77613;DHT22;66777;52.282;5.960;2023-03-01T15:27:12;10.20;42.50
77613;DHT22;66777;52.282;5.960;2023-03-01T15:29:34;9.80;43.00
77613;DHT22;66777;52.282;5.960;2023-03-01T15:32:30;9.70;42.70
77613;DHT22;66777;52.282;5.960;2023-03-01T15:34:58;9.50;42.90
77613;DHT22;66777;52.282;5.960;2023-03-01T15:37:53;9.20;43.40
77613;DHT22;66777;52.282;5.960;2023-03-01T15:40:28;8.90;43.70
77613;DHT22;66777;52.282;5.960;2023-03-01T15:43:41;8.50;44.20
77613;DHT22;66777;52.282;5.960;2023-03-01T15:52:22;8.00;45.20
77613;DHT22;66777;52.282;5.960;2023-03-01T15:54:58;7.80;45.40
77613;DHT22;66777;52.282;5.960;2023-03-01T15:57:25;7.70;45.60
77613;DHT22;66777;52.282;5.960;2023-03-01T15:59:51;7.60;45.50
77613;DHT22;66777;52.282;5.960;2023-03-01T16:02:17;7.50;45.50
77613;DHT22;66777;52.282;5.960;2023-03-01T16:04:42;7.40;45.80
77613;DHT22;66777;52.282;5.960;2023-03-01T16:07:09;7.40;46.40
77613;DHT22;66777;52.282;5.960;2023-03-01T16:09:35;7.30;46.50
77613;DHT22;66777;52.282;5.960;2023-03-01T16:12:01;7.20;46.30
77613;DHT22;66777;52.282;5.960;2023-03-01T16:14:27;7.10;46.80
77613;DHT22;66777;52.282;5.960;2023-03-01T16:16:52;7.00;46.80
77613;DHT22;66777;52.282;5.960;2023-03-01T16:19:18;6.90;46.80
77613;DHT22;66777;52.282;5.960;2023-03-01T16:21:44;6.90;47.20
77613;DHT22;66777;52.282;5.960;2023-03-01T16:24:12;6.80;47.80
77613;DHT22;66777;52.282;5.960;2023-03-01T16:26:38;6.70;47.60
77613;DHT22;66777;52.282;5.960;2023-03-01T16:29:04;6.60;48.00
77613;DHT22;66777;52.282;5.960;2023-03-01T16:31:30;6.50;48.50
77613;DHT22;66777;52.282;5.960;2023-03-01T16:33:57;6.50;48.20
77613;DHT22;66777;52.282;5.960;2023-03-01T16:36:24;6.40;48.40
77613;DHT22;66777;52.282;5.960;2023-03-01T16:38:55;6.30;48.90
77613;DHT22;66777;52.282;5.960;2023-03-01T16:41:23;6.20;48.80
77613;DHT22;66777;52.282;5.960;2023-03-01T16:43:50;6.20;49.30
77613;DHT22;66777;52.282;5.960;2023-03-01T16:46:22;6.10;49.00
77613;DHT22;66777;52.282;5.960;2023-03-01T16:48:48;6.00;49.70
77613;DHT22;66777;52.282;5.960;2023-03-01T16:51:15;5.90;50.40
77613;DHT22;66777;52.282;5.960;2023-03-01T16:53:41;5.80;50.40
77613;DHT22;66777;52.282;5.960;2023-03-01T16:56:10;5.70;50.80
77613;DHT22;66777;52.282;5.960;2023-03-01T16:58:36;5.50;50.70
77613;DHT22;66777;52.282;5.960;2023-03-01T17:01:10;5.50;50.90
77613;DHT22;66777;52.282;5.960;2023-03-01T17:03:37;5.50;50.90
77613;DHT22;66777;52.282;5.960;2023-03-01T17:06:07;5.40;51.40
77613;DHT22;66777;52.282;5.960;2023-03-01T17:08:34;5.30;51.30
77613;DHT22;66777;52.282;5.960;2023-03-01T17:11:13;5.30;51.20
77613;DHT22;66777;52.282;5.960;2023-03-01T17:13:39;5.10;52.40
77613;DHT22;66777;52.282;5.960;2023-03-01T17:16:07;5.00;51.70
77613;DHT22;66777;52.282;5.960;2023-03-01T17:18:34;5.00;52.40
77613;DHT22;66777;52.282;5.960;2023-03-01T17:21:00;4.90;52.80
77613;DHT22;66777;52.282;5.960;2023-03-01T17:23:27;4.70;53.40
77613;DHT22;66777;52.282;5.960;2023-03-01T17:25:53;4.70;53.40
77613;DHT22;66777;52.282;5.960;2023-03-01T17:28:24;4.50;54.10
77613;DHT22;66777;52.282;5.960;2023-03-01T17:30:51;4.40;54.30
77613;DHT22;66777;52.282;5.960;2023-03-01T17:33:20;4.40;54.40
77613;DHT22;66777;52.282;5.960;2023-03-01T17:35:45;4.30;54.40
77613;DHT22;66777;52.282;5.960;2023-03-01T17:38:13;4.20;55.10
77613;DHT22;66777;52.282;5.960;2023-03-01T17:40:40;4.20;54.40
77613;DHT22;66777;52.282;5.960;2023-03-01T17:43:07;4.10;54.40
77613;DHT22;66777;52.282;5.960;2023-03-01T17:45:36;4.10;54.60
77613;DHT22;66777;52.282;5.960;2023-03-01T17:48:01;4.00;55.80
77613;DHT22;66777;52.282;5.960;2023-03-01T17:50:27;3.90;56.10
77613;DHT22;66777;52.282;5.960;2023-03-01T17:52:53;3.80;55.70
77613;DHT22;66777;52.282;5.960;2023-03-01T17:55:20;3.70;56.80
77613;DHT22;66777;52.282;5.960;2023-03-01T17:57:46;3.60;56.80
77613;DHT22;66777;52.282;5.960;2023-03-01T18:00:14;3.60;56.50